ADDS TAF Board (Experimental) INFO

IDs: Format: Expanded Condensed

Updated at: 1832 UTC 30 Jan 2015

KFLL - Ft Lauderdale-Hollyw, FL, US

Issued at 1727 UTC 30 Jan 2015
Time1753Z30/19Z30/20Z30/21Z30/22Z30/23Z31/00Z31/01Z31/02Z31/03Z31/04Z31/05Z31/06Z31/07Z
TypeOBSPRVLPRVLPRVLPRVLPRVLPRVLPRVLPRVLPRVLPRVLPRVLPRVLPRVL
VIS10>6>6>6>6>6>6>6>6>6>6>6>6>6
CIG----------------------------
CoverFEWSKCSKCSKCSKCSKCSKCSKCSKCSKCSKCSKCSKCSKC
FltCat--VFRVFRVFRVFRVFRVFRVFRVFRVFRVFRVFRVFRVFR
WX----------------------------
WDir30031031031031031031031031031031031031030
WSpd69999999999998
WGst----------------------------
R10/28
XWnd36666666666667
HWnd-5-7-7-7-7-7-7-7-7-7-7-7-74
Raw TAF
KFLL 301727Z 3018/3118 31009KT P6SM SKC
  FM310700 03008KT P6SM SKC


Raw METAR
KFLL 301753Z 30006KT 10SM FEW040 22/11 A3016 RMK AO2 SLP213 T02220111 10228 20150 58022

TAF Board Legend

Hazard VFR MVFR IFR LIFR
Visibility (sm) >5 3≤X≤5 1≤X<3 <1
Ceiling (100 ft) >30 10≤X≤30 5≤X<10 <5
Wind Speed (kt) <10 10≤X<20 20≤X<30 ≥30
Wind Gust (kt) <15 15≤X<25 25≤X<35 ≥35
Weather No Wx Reported VCTS,-TS,-FZRA TS,FZRA +TS,+FZRA


Page loaded:  18:32 UTC  |   10:32 AM Pacific  |   11:32 AM Mountain  |   12:32 PM Central  |   01:32 PM Eastern

 

ADVISORIES

FORECASTS

FORECASTS

OBSERVATIONS

USER TOOLS

ABOUT US